createdAt,value
2023-03-21T00:00:11.320Z,6.70
2023-03-21T00:02:39.029Z,6.73
2023-03-21T00:05:15.558Z,6.73
2023-03-21T00:07:43.990Z,6.74
2023-03-21T00:10:18.142Z,6.74
2023-03-21T00:12:50.325Z,6.73
2023-03-21T00:15:20.560Z,6.72
2023-03-21T00:17:50.839Z,6.77
2023-03-21T00:20:20.738Z,6.77
2023-03-21T00:22:48.440Z,6.73
2023-03-21T00:25:16.168Z,6.77
2023-03-21T00:28:01.097Z,6.77
2023-03-21T00:30:31.563Z,6.77
2023-03-21T00:33:03.562Z,6.74
2023-03-21T00:35:57.996Z,6.72
2023-03-21T00:38:24.220Z,6.69
2023-03-21T00:40:52.558Z,6.66
2023-03-21T00:43:23.480Z,6.64
2023-03-21T00:45:52.610Z,6.64
2023-03-21T00:48:20.755Z,6.58
2023-03-21T00:50:52.393Z,6.59
2023-03-21T00:53:20.065Z,6.59
2023-03-21T00:55:47.805Z,6.56
2023-03-21T00:58:15.548Z,6.60
2023-03-21T01:00:43.787Z,6.60
2023-03-21T01:03:23.689Z,6.57
2023-03-21T01:06:06.995Z,6.60
2023-03-21T01:08:50.589Z,6.69
2023-03-21T01:11:23.063Z,6.75
2023-03-21T01:13:56.272Z,6.83
2023-03-21T01:16:30.317Z,6.84
2023-03-21T01:18:58.373Z,6.85
2023-03-21T01:21:28.043Z,6.83
2023-03-21T01:23:55.865Z,6.76
2023-03-21T01:26:23.610Z,6.72
2023-03-21T01:28:51.498Z,6.67
2023-03-21T01:31:19.436Z,6.60
2023-03-21T01:33:47.918Z,6.60
2023-03-21T01:36:21.833Z,6.59
2023-03-21T01:38:52.171Z,6.63
2023-03-21T01:41:28.453Z,6.63
2023-03-21T01:44:01.656Z,6.64
2023-03-21T01:46:47.733Z,6.62
2023-03-21T01:49:27.080Z,6.62
2023-03-21T01:52:11.558Z,6.59
2023-03-21T01:54:42.970Z,6.54
2023-03-21T01:57:17.353Z,6.49
2023-03-21T01:59:49.980Z,6.45
2023-03-21T02:02:23.288Z,6.43
2023-03-21T02:04:55.937Z,6.42
2023-03-21T02:07:28.887Z,6.45
2023-03-21T02:09:59.759Z,6.44
2023-03-21T02:12:28.705Z,6.46
2023-03-21T02:14:57.145Z,6.43
2023-03-21T02:17:34.349Z,6.43
2023-03-21T02:20:37.230Z,6.45
2023-03-21T02:23:37.939Z,6.40
2023-03-21T02:26:45.079Z,6.39
2023-03-21T02:29:33.896Z,6.40
2023-03-21T02:32:22.603Z,6.36
2023-03-21T02:35:24.603Z,6.38
2023-03-21T02:38:00.894Z,6.33
2023-03-21T02:40:34.821Z,6.30
2023-03-21T02:43:09.338Z,6.22
2023-03-21T02:45:50.705Z,6.22
2023-03-21T02:48:31.207Z,6.17
2023-03-21T02:51:06.145Z,6.18
2023-03-21T02:53:39.624Z,6.22
2023-03-21T02:56:10.780Z,6.16
2023-03-21T02:58:41.017Z,6.18
2023-03-21T03:01:09.515Z,6.14
2023-03-21T03:03:39.441Z,6.18
2023-03-21T03:06:17.134Z,6.24
2023-03-21T03:09:02.604Z,6.23
2023-03-21T03:11:32.434Z,6.19
2023-03-21T03:17:19.310Z,6.16
2023-03-21T03:20:15.463Z,6.21
2023-03-21T03:22:53.432Z,6.23
2023-03-21T03:25:41.528Z,6.28
2023-03-21T03:28:11.100Z,6.31
2023-03-21T03:30:45.036Z,6.31
2023-03-21T03:33:23.501Z,6.30
2023-03-21T03:36:04.359Z,6.27
2023-03-21T03:38:34.645Z,6.22
2023-03-21T03:41:10.332Z,6.18
2023-03-21T03:43:44.325Z,6.15
2023-03-21T03:46:18.001Z,6.11
2023-03-21T03:48:49.957Z,6.07
2023-03-21T03:51:22.501Z,6.06
2023-03-21T03:53:55.391Z,6.14
2023-03-21T03:56:25.414Z,6.20
2023-03-21T03:58:53.357Z,6.22
2023-03-21T04:01:22.105Z,6.26
2023-03-21T04:03:58.403Z,6.29
2023-03-21T04:06:32.330Z,6.23
2023-03-21T04:09:03.471Z,6.23
2023-03-21T04:11:34.553Z,6.24
2023-03-21T04:14:02.254Z,6.21
2023-03-21T04:16:32.818Z,6.17
2023-03-21T04:19:02.089Z,6.18
2023-03-21T04:21:29.982Z,6.18
2023-03-21T04:23:57.683Z,6.13
2023-03-21T04:26:25.601Z,6.15
2023-03-21T04:28:54.768Z,6.10
2023-03-21T04:31:26.422Z,6.03
2023-03-21T04:33:55.878Z,6.02
2023-03-21T04:36:27.403Z,6.07
2023-03-21T04:38:57.160Z,5.99
2023-03-21T04:41:24.942Z,5.96
2023-03-21T04:43:54.602Z,5.93
2023-03-21T04:46:22.404Z,5.89
2023-03-21T04:48:50.498Z,5.90
2023-03-21T04:51:18.234Z,5.88
2023-03-21T04:53:49.335Z,5.86
2023-03-21T04:56:17.742Z,5.76
2023-03-21T04:58:45.793Z,5.78
2023-03-21T05:01:14.935Z,5.81
2023-03-21T05:03:42.669Z,5.84
2023-03-21T05:06:11.337Z,5.77
2023-03-21T05:08:39.135Z,5.73
2023-03-21T05:11:07.232Z,5.79
2023-03-21T05:13:34.921Z,5.82
2023-03-21T05:16:02.605Z,5.82
2023-03-21T05:18:34.977Z,5.76
2023-03-21T05:21:04.168Z,5.72
2023-03-21T05:23:31.886Z,5.71
2023-03-21T05:25:59.616Z,5.71
2023-03-21T05:28:31.528Z,5.72
2023-03-21T05:30:59.356Z,5.76
2023-03-21T05:33:27.102Z,5.75
2023-03-21T05:35:56.310Z,5.77
2023-03-21T05:38:24.122Z,5.80
2023-03-21T05:40:53.014Z,5.91
2023-03-21T05:43:20.798Z,5.89
2023-03-21T05:45:48.970Z,5.88
2023-03-21T05:48:16.722Z,5.88
2023-03-21T05:50:44.457Z,5.90
2023-03-21T05:53:13.614Z,5.93
2023-03-21T05:55:41.271Z,6.03
2023-03-21T05:58:08.984Z,6.12
2023-03-21T06:00:36.654Z,6.27
2023-03-21T06:03:04.539Z,6.40
2023-03-21T06:05:32.224Z,6.53
2023-03-21T06:08:00.000Z,6.65
2023-03-21T06:10:29.090Z,6.85
2023-03-21T06:12:56.783Z,6.92
2023-03-21T06:15:25.268Z,7.04
2023-03-21T06:17:52.946Z,7.12
2023-03-21T06:20:20.910Z,7.19
2023-03-21T06:22:48.633Z,7.28
2023-03-21T06:25:16.759Z,7.33
2023-03-21T06:27:45.848Z,7.42
2023-03-21T06:30:14.533Z,7.54
2023-03-21T06:32:42.280Z,7.57
2023-03-21T06:35:10.471Z,7.69
2023-03-21T06:37:38.445Z,7.76
2023-03-21T06:40:09.658Z,7.86
2023-03-21T06:42:37.415Z,8.02
2023-03-21T06:45:09.813Z,8.11
2023-03-21T06:47:37.530Z,8.21
2023-03-21T06:50:08.378Z,8.30
2023-03-21T06:52:36.109Z,8.41
2023-03-21T06:55:03.859Z,8.57
2023-03-21T06:57:31.555Z,8.54
2023-03-21T06:59:59.342Z,8.61
2023-03-21T07:02:28.428Z,8.69
2023-03-21T07:04:56.816Z,8.84
2023-03-21T07:07:27.142Z,8.95
2023-03-21T07:09:54.778Z,9.02
2023-03-21T07:12:24.255Z,9.06
2023-03-21T07:14:52.157Z,9.17
2023-03-21T07:17:19.883Z,9.20
2023-03-21T07:19:52.077Z,9.23
2023-03-21T07:22:20.531Z,9.44
2023-03-21T07:24:55.840Z,9.47
2023-03-21T07:27:30.288Z,9.56
2023-03-21T07:29:58.017Z,9.68
2023-03-21T07:32:30.103Z,9.73
2023-03-21T07:35:01.563Z,9.64
2023-03-21T07:37:29.538Z,9.67
2023-03-21T07:39:57.438Z,9.69
2023-03-21T07:42:25.308Z,9.70
2023-03-21T07:44:54.997Z,9.80
2023-03-21T07:47:22.745Z,9.88
2023-03-21T07:49:51.196Z,10.11
2023-03-21T07:52:20.314Z,10.18
2023-03-21T07:54:48.020Z,10.21
2023-03-21T07:57:15.788Z,10.35
2023-03-21T07:59:43.490Z,10.37
2023-03-21T08:02:14.478Z,10.48
2023-03-21T08:04:42.164Z,10.58
2023-03-21T08:07:10.318Z,10.66
2023-03-21T08:09:39.466Z,10.72
2023-03-21T08:12:08.537Z,10.77
2023-03-21T08:14:37.006Z,10.77
2023-03-21T08:17:05.347Z,10.75
2023-03-21T08:19:33.229Z,10.86
2023-03-21T08:22:01.329Z,10.97
2023-03-21T08:24:30.117Z,10.95
2023-03-21T08:26:59.244Z,11.15
2023-03-21T08:29:27.106Z,11.23
2023-03-21T08:31:54.919Z,11.25
2023-03-21T08:34:23.153Z,11.35
2023-03-21T08:36:51.135Z,11.38
2023-03-21T08:39:19.354Z,11.43
2023-03-21T08:41:47.126Z,11.57
2023-03-21T08:44:17.088Z,11.68
2023-03-21T08:46:45.009Z,11.82
2023-03-21T08:49:12.877Z,11.87
2023-03-21T08:51:41.216Z,11.76
2023-03-21T08:54:09.118Z,11.90
2023-03-21T08:56:37.560Z,11.92
2023-03-21T08:59:05.322Z,12.14
2023-03-21T09:01:34.658Z,12.09
2023-03-21T09:04:02.560Z,12.14
2023-03-21T09:06:33.713Z,12.34
2023-03-21T09:09:01.893Z,12.50
2023-03-21T09:11:29.764Z,12.69
2023-03-21T09:13:57.562Z,12.82
2023-03-21T09:16:25.779Z,12.83
2023-03-21T09:18:56.898Z,12.66
2023-03-21T09:21:25.000Z,12.89
2023-03-21T09:23:55.352Z,12.94
2023-03-21T09:26:25.046Z,13.21
2023-03-21T09:28:53.243Z,13.29
2023-03-21T09:31:23.088Z,13.10
2023-03-21T09:33:51.655Z,13.09
2023-03-21T09:36:25.091Z,13.42
2023-03-21T09:38:53.308Z,13.58
2023-03-21T09:41:52.979Z,13.31
2023-03-21T09:44:32.998Z,13.39
2023-03-21T09:47:07.589Z,13.55
2023-03-21T09:49:40.015Z,13.88
2023-03-21T09:52:19.066Z,14.13
2023-03-21T09:54:47.115Z,14.22
2023-03-21T09:57:22.465Z,14.34
2023-03-21T09:59:53.737Z,14.27
2023-03-21T10:02:36.087Z,14.23
2023-03-21T10:05:11.993Z,14.25
2023-03-21T10:07:47.683Z,14.38
2023-03-21T10:10:18.518Z,14.53
2023-03-21T10:12:48.377Z,14.45
2023-03-21T10:15:19.102Z,14.53
2023-03-21T10:17:52.771Z,14.56
2023-03-21T10:20:23.421Z,14.65
2023-03-21T10:22:55.630Z,14.68
2023-03-21T10:25:29.221Z,14.69
2023-03-21T10:27:57.081Z,14.83
2023-03-21T10:30:33.236Z,14.77
2023-03-21T10:33:05.590Z,14.67
2023-03-21T10:35:37.286Z,14.78
2023-03-21T10:38:11.494Z,15.12
2023-03-21T10:40:39.234Z,15.27
2023-03-21T10:43:33.971Z,15.22
2023-03-21T10:46:07.688Z,15.07
2023-03-21T10:48:37.851Z,15.12
2023-03-21T10:51:09.277Z,14.85
2023-03-21T10:53:41.220Z,14.99
2023-03-21T10:56:11.120Z,15.03
2023-03-21T10:58:43.395Z,15.28
2023-03-21T11:01:15.814Z,15.58
2023-03-21T11:03:46.856Z,16.00
2023-03-21T11:06:23.595Z,15.78
2023-03-21T11:08:57.712Z,15.37
2023-03-21T11:11:28.242Z,15.32
2023-03-21T11:14:06.680Z,15.39
2023-03-21T11:16:40.828Z,15.43
2023-03-21T11:19:17.597Z,15.93
2023-03-21T11:21:46.265Z,16.48
2023-03-21T11:24:18.374Z,16.74
2023-03-21T11:26:48.836Z,16.89
2023-03-21T11:29:30.370Z,17.27
2023-03-21T11:32:02.690Z,17.40
2023-03-21T11:34:40.341Z,16.76
2023-03-21T11:37:20.812Z,17.26
2023-03-21T11:39:56.496Z,17.31
2023-03-21T11:42:31.237Z,16.69
2023-03-21T11:45:03.181Z,16.74
2023-03-21T11:47:31.666Z,17.04
2023-03-21T11:50:04.878Z,17.07
2023-03-21T11:52:39.729Z,17.30
2023-03-21T11:55:23.271Z,17.05
2023-03-21T11:58:13.983Z,17.54
2023-03-21T12:00:49.894Z,17.90
2023-03-21T12:03:48.937Z,17.71
2023-03-21T12:06:25.203Z,17.34
2023-03-21T12:09:07.094Z,17.62
2023-03-21T12:11:46.675Z,17.59
2023-03-21T12:14:23.722Z,17.13
2023-03-21T12:17:06.326Z,17.73
2023-03-21T12:20:08.905Z,18.37
2023-03-21T12:22:45.704Z,18.03
2023-03-21T12:25:18.471Z,18.36
2023-03-21T12:27:57.036Z,18.84
2023-03-21T12:30:34.187Z,18.88
2023-03-21T12:33:14.919Z,18.98
2023-03-21T12:35:54.296Z,18.95
2023-03-21T12:38:27.107Z,19.09
2023-03-21T12:41:11.631Z,19.15
2023-03-21T12:43:47.630Z,18.89
2023-03-21T12:46:23.060Z,18.44
2023-03-21T12:48:53.729Z,18.47
2023-03-21T12:51:26.667Z,18.96
2023-03-21T12:54:01.873Z,19.24
2023-03-21T12:56:32.840Z,19.31
2023-03-21T12:59:13.538Z,19.07
2023-03-21T13:01:44.027Z,19.34
2023-03-21T13:04:32.646Z,19.06
2023-03-21T13:07:03.595Z,19.29
2023-03-21T13:09:37.961Z,18.68
2023-03-21T13:12:20.611Z,19.15
2023-03-21T13:15:00.790Z,19.01
2023-03-21T13:17:36.597Z,18.88
2023-03-21T13:20:19.198Z,19.05
2023-03-21T13:22:47.468Z,19.73
2023-03-21T13:25:20.106Z,20.07
2023-03-21T13:27:54.124Z,20.02
2023-03-21T13:30:26.477Z,19.70
2023-03-21T13:33:06.476Z,19.69
2023-03-21T13:35:38.471Z,18.99
2023-03-21T13:38:16.406Z,18.89
2023-03-21T13:40:48.747Z,18.98
2023-03-21T13:43:35.881Z,19.07
2023-03-21T13:46:10.061Z,18.67
2023-03-21T13:48:59.069Z,18.68
2023-03-21T13:51:43.953Z,18.18
2023-03-21T13:54:20.645Z,18.19
2023-03-21T13:56:54.068Z,18.05
2023-03-21T13:59:38.498Z,18.67
2023-03-21T14:02:31.028Z,18.85
2023-03-21T14:05:05.712Z,18.26
2023-03-21T14:07:36.683Z,18.38
2023-03-21T14:10:09.593Z,18.29
2023-03-21T14:12:40.719Z,18.38
2023-03-21T14:15:17.164Z,18.69
2023-03-21T14:17:54.373Z,19.27
2023-03-21T14:20:25.696Z,19.37
2023-03-21T14:22:54.094Z,19.65
2023-03-21T14:25:27.238Z,19.78
2023-03-21T14:27:59.582Z,18.77
2023-03-21T14:30:30.907Z,19.25
2023-03-21T14:33:04.547Z,19.30
2023-03-21T14:35:34.048Z,18.78
2023-03-21T14:38:04.532Z,18.81
2023-03-21T14:40:32.647Z,18.51
2023-03-21T14:43:06.243Z,17.82
2023-03-21T14:45:37.145Z,17.85
2023-03-21T14:48:09.714Z,17.38
2023-03-21T14:50:41.887Z,17.13
2023-03-21T14:53:17.519Z,17.33
2023-03-21T14:55:46.248Z,17.77
2023-03-21T14:58:16.866Z,17.47
2023-03-21T15:00:45.021Z,17.55
2023-03-21T15:03:16.213Z,17.67
2023-03-21T15:05:45.009Z,17.58
2023-03-21T15:08:16.762Z,17.16
2023-03-21T15:11:06.344Z,16.72
2023-03-21T15:13:37.476Z,16.66
2023-03-21T15:16:06.341Z,16.49
2023-03-21T15:18:38.221Z,16.44
2023-03-21T15:21:11.088Z,16.32
2023-03-21T15:23:42.684Z,16.19
2023-03-21T15:26:15.884Z,16.01
2023-03-21T15:28:46.544Z,16.10
2023-03-21T15:31:19.830Z,16.12
2023-03-21T15:34:38.423Z,16.14
2023-03-21T15:38:23.822Z,16.16
2023-03-21T15:44:53.814Z,15.60
2023-03-21T15:47:55.009Z,15.66
2023-03-21T15:51:35.576Z,15.47
2023-03-21T16:05:27.131Z,15.31
2023-03-21T16:08:47.768Z,15.21
2023-03-21T16:15:33.647Z,15.02
2023-03-21T16:18:17.528Z,14.97
2023-03-21T16:20:56.762Z,15.00
2023-03-21T16:27:26.801Z,14.70
2023-03-21T16:30:46.677Z,14.71
2023-03-21T16:33:56.877Z,14.57
2023-03-21T16:36:37.542Z,14.53
2023-03-21T16:39:26.714Z,14.50
2023-03-21T16:41:57.169Z,14.41
2023-03-21T16:44:29.249Z,14.38
2023-03-21T16:46:56.971Z,14.40
2023-03-21T16:49:26.757Z,14.33
2023-03-21T16:51:55.955Z,14.25
2023-03-21T16:54:27.035Z,14.14
2023-03-21T16:57:00.911Z,14.08
2023-03-21T16:59:33.088Z,13.94
2023-03-21T17:02:34.422Z,13.83
2023-03-21T17:05:16.031Z,13.70
2023-03-21T17:07:47.136Z,13.61
2023-03-21T17:10:23.861Z,13.52
2023-03-21T17:12:51.680Z,13.39
2023-03-21T17:15:26.505Z,13.26
2023-03-21T17:18:11.665Z,13.16
2023-03-21T17:20:44.374Z,13.07
2023-03-21T17:23:19.727Z,12.97
2023-03-21T17:25:53.554Z,12.88
2023-03-21T17:29:07.287Z,12.73
2023-03-21T17:31:42.540Z,12.63
2023-03-21T17:34:16.175Z,12.50
2023-03-21T17:37:02.695Z,12.42
2023-03-21T17:39:34.758Z,12.32
2023-03-21T17:42:12.868Z,12.22
2023-03-21T17:44:40.647Z,12.09
2023-03-21T17:47:18.523Z,11.96
2023-03-21T17:50:07.127Z,11.83
2023-03-21T17:55:19.911Z,11.58
2023-03-21T17:57:48.610Z,11.47
2023-03-21T18:00:20.853Z,11.41
2023-03-21T18:02:50.727Z,11.36
2023-03-21T18:05:18.767Z,11.31
2023-03-21T18:10:37.811Z,11.15
2023-03-21T18:13:05.765Z,11.06
2023-03-21T18:15:34.823Z,10.97
2023-03-21T18:18:06.753Z,10.84
2023-03-21T18:20:54.537Z,10.76
2023-03-21T18:23:22.726Z,10.69
2023-03-21T18:25:52.424Z,10.57
2023-03-21T18:28:21.496Z,10.49
2023-03-21T18:31:09.553Z,10.49
2023-03-21T18:33:45.040Z,10.43
2023-03-21T18:36:36.799Z,10.39
2023-03-21T18:39:30.341Z,10.36
2023-03-21T18:43:32.795Z,10.33
2023-03-21T18:45:40.494Z,10.30
2023-03-21T18:48:16.176Z,10.29
2023-03-21T18:53:30.003Z,10.34
2023-03-21T18:56:00.760Z,10.30
2023-03-21T18:59:32.491Z,10.27
2023-03-21T19:02:18.671Z,10.26
2023-03-21T19:07:49.683Z,10.30
2023-03-21T19:10:38.069Z,10.30
2023-03-21T19:13:07.058Z,10.26
2023-03-21T19:21:01.288Z,10.26
2023-03-21T19:23:40.793Z,10.32
2023-03-21T19:26:18.055Z,10.25
2023-03-21T19:28:46.040Z,10.24
2023-03-21T19:31:13.898Z,10.21
2023-03-21T19:33:41.580Z,10.21
2023-03-21T19:36:20.914Z,10.15
2023-03-21T19:38:51.737Z,10.07
2023-03-21T19:41:20.420Z,10.05
2023-03-21T19:43:54.842Z,10.06
2023-03-21T19:46:25.599Z,10.05
2023-03-21T19:48:56.594Z,9.94
2023-03-21T19:51:29.493Z,9.89
2023-03-21T19:53:59.101Z,9.86
2023-03-21T19:56:27.887Z,9.80
2023-03-21T19:58:56.002Z,9.75
2023-03-21T20:01:25.053Z,9.65
2023-03-21T20:03:53.007Z,9.62
2023-03-21T20:06:22.539Z,9.55
2023-03-21T20:09:27.298Z,9.49
2023-03-21T20:11:40.160Z,9.38
2023-03-21T20:14:07.835Z,9.33
2023-03-21T20:16:36.971Z,9.30
2023-03-21T20:19:05.909Z,9.28
2023-03-21T20:21:44.447Z,9.30
2023-03-21T20:24:16.790Z,9.27
2023-03-21T20:26:47.096Z,9.23
2023-03-21T20:32:02.503Z,9.08
2023-03-21T20:34:30.751Z,9.14
2023-03-21T20:36:59.152Z,9.03
2023-03-21T20:39:29.487Z,9.00
2023-03-21T20:41:59.660Z,8.84
2023-03-21T20:44:51.893Z,8.77
2023-03-21T20:47:15.561Z,8.69
2023-03-21T20:49:43.229Z,8.63
2023-03-21T20:54:58.797Z,8.64
2023-03-21T20:57:28.344Z,8.62
2023-03-21T20:59:56.308Z,8.61
2023-03-21T21:02:24.809Z,8.58
2023-03-21T21:05:23.738Z,8.62
2023-03-21T21:07:42.387Z,8.60
2023-03-21T21:10:11.778Z,8.66
2023-03-21T21:12:45.020Z,8.54
2023-03-21T21:15:16.615Z,8.44
2023-03-21T21:20:33.643Z,8.34
2023-03-21T21:23:01.535Z,8.37
2023-03-21T21:25:30.554Z,8.36
2023-03-21T21:28:01.570Z,8.29
2023-03-21T21:30:30.333Z,8.27
2023-03-21T21:32:59.673Z,8.21
2023-03-21T21:35:27.554Z,8.22
2023-03-21T21:37:55.973Z,8.21
2023-03-21T21:40:24.200Z,8.10
2023-03-21T21:42:52.070Z,8.02
2023-03-21T21:45:21.434Z,8.00
2023-03-21T21:47:49.221Z,8.05
2023-03-21T21:50:16.945Z,8.09
2023-03-21T21:52:52.577Z,8.03
2023-03-21T21:55:20.572Z,8.03
2023-03-21T21:57:50.648Z,7.99
2023-03-21T22:00:21.605Z,8.05
2023-03-21T22:02:49.382Z,7.99
2023-03-21T22:05:18.873Z,7.99
2023-03-21T22:07:46.685Z,7.89
2023-03-21T22:10:14.962Z,7.85
2023-03-21T22:12:42.724Z,7.79
2023-03-21T22:15:11.975Z,7.68
2023-03-21T22:17:42.042Z,7.56
2023-03-21T22:20:12.664Z,7.54
2023-03-21T22:22:40.689Z,7.44
2023-03-21T22:25:11.822Z,7.39
2023-03-21T22:27:39.543Z,7.33
2023-03-21T22:30:09.597Z,7.23
2023-03-21T22:32:39.366Z,7.18
2023-03-21T22:35:09.837Z,7.16
2023-03-21T22:37:40.058Z,7.09
2023-03-21T22:40:09.874Z,7.04
2023-03-21T22:42:39.644Z,6.98
2023-03-21T22:45:09.650Z,6.91
2023-03-21T22:47:37.483Z,6.89
2023-03-21T22:50:07.412Z,6.84
2023-03-21T22:52:36.551Z,6.75
2023-03-21T22:59:55.894Z,6.60
2023-03-21T23:02:23.561Z,6.57
2023-03-21T23:04:51.269Z,6.49
2023-03-21T23:07:19.237Z,6.45
2023-03-21T23:09:46.951Z,6.46
2023-03-21T23:12:14.925Z,6.45
2023-03-21T23:14:42.626Z,6.42
2023-03-21T23:17:12.461Z,6.39
2023-03-21T23:19:41.203Z,6.35
2023-03-21T23:22:09.465Z,6.31
2023-03-21T23:24:37.184Z,6.24
2023-03-21T23:27:05.146Z,6.26
2023-03-21T23:29:32.930Z,6.20
2023-03-21T23:32:00.888Z,6.18
2023-03-21T23:34:30.327Z,6.17
2023-03-21T23:36:58.330Z,6.13
2023-03-21T23:39:26.468Z,6.11
2023-03-21T23:41:54.151Z,6.03
2023-03-21T23:44:21.835Z,5.91
2023-03-21T23:46:49.534Z,5.87
2023-03-21T23:49:17.332Z,5.81
2023-03-21T23:51:47.065Z,5.77
2023-03-21T23:54:14.905Z,5.78
2023-03-21T23:56:43.116Z,5.83
2023-03-21T23:59:10.857Z,5.84
